Time;durP1;ratioP1;P1;durP2;ratioP2;P2;SDS_P1;SDS_P2;PMS_P1;PMS_P2;Temp;Humidity;BMP_temperature;BMP_pressure;BME280_temperature;BME280_humidity;BME280_pressure;Samples;Min_cycle;Max_cycle;Signal;HPM_P1;HPM_P2
2023/10/12 00:02:09;;;;;;;6.55;1.70;;;13.60;99.90;;;;;;5049914;28;20127;-74
2023/10/12 00:04:43;;;;;;;12.10;1.95;;;13.70;99.90;;;;;;5049699;28;20573;-73
2023/10/12 00:07:33;;;;;;;6.38;1.63;;;13.70;99.90;;;;;;5049630;28;20130;-72
2023/10/12 00:10:19;;;;;;;11.45;2.00;;;13.70;99.90;;;;;;5049038;28;20052;-73
2023/10/12 00:12:46;;;;;;;8.15;1.70;;;13.80;99.90;;;;;;5049445;28;20504;-74
2023/10/12 00:17:47;;;;;;;9.63;1.98;;;13.70;99.90;;;;;;5049716;28;20593;-74
2023/10/12 00:23:09;;;;;;;;;;;13.70;99.90;;;;;;5050199;28;20041;-73
2023/10/12 00:25:46;;;;;;;5.90;2.00;;;13.80;99.90;;;;;;5052644;28;19917;-73
2023/10/12 00:28:19;;;;;;;10.82;1.88;;;13.80;99.90;;;;;;5053098;28;20120;-73
2023/10/12 00:30:47;;;;;;;13.35;1.60;;;13.80;99.90;;;;;;5053506;28;20385;-73
2023/10/12 00:33:12;;;;;;;10.65;2.13;;;13.70;99.90;;;;;;5053093;28;20037;-73
2023/10/12 00:35:38;;;;;;;8.40;1.90;;;13.70;99.90;;;;;;5053533;28;20080;-73
2023/10/12 00:38:18;;;;;;;8.10;2.17;;;13.70;99.90;;;;;;5053133;28;20040;-73
2023/10/12 00:40:55;;;;;;;13.30;1.83;;;13.70;99.90;;;;;;5053148;28;20392;-73
2023/10/12 00:43:21;;;;;;;8.30;1.73;;;13.70;99.90;;;;;;5036396;28;20053;-74
2023/10/12 00:45:47;;;;;;;8.10;1.98;;;13.70;99.90;;;;;;5052097;28;20573;-73
2023/10/12 00:48:16;;;;;;;8.02;1.95;;;13.80;99.90;;;;;;5052190;28;20382;-73
2023/10/12 00:50:47;;;;;;;8.82;1.60;;;13.70;99.90;;;;;;5052142;28;20044;-72
2023/10/12 00:53:22;;;;;;;10.85;1.80;;;13.70;99.90;;;;;;5053198;28;20091;-73
2023/10/12 00:55:49;;;;;;;13.10;1.77;;;13.70;99.90;;;;;;5052899;28;20124;-72
2023/10/12 00:58:16;;;;;;;11.10;1.98;;;13.70;99.90;;;;;;5052822;28;20514;-73
2023/10/12 01:00:50;;;;;;;12.60;2.00;;;13.60;99.90;;;;;;5035989;28;20080;-73
2023/10/12 01:03:35;;;;;;;9.65;2.00;;;13.60;99.90;;;;;;5052360;28;20041;-72
2023/10/12 01:08:42;;;;;;;7.35;1.88;;;13.70;99.90;;;;;;5051679;28;20136;-73
2023/10/12 01:11:18;;;;;;;9.90;1.98;;;13.60;99.90;;;;;;5052917;28;20190;-73
2023/10/12 01:13:49;;;;;;;11.40;2.13;;;13.60;99.90;;;;;;5052556;28;20040;-73
2023/10/12 01:16:23;;;;;;;8.85;1.90;;;13.60;99.90;;;;;;5052747;28;20147;-73
2023/10/12 01:18:51;;;;;;;;;;;13.50;99.90;;;;;;5052696;28;20033;-73
2023/10/12 01:21:16;;;;;;;11.23;1.75;;;13.50;99.90;;;;;;5052494;28;19917;-73
2023/10/12 01:23:50;;;;;;;12.02;1.98;;;13.60;99.90;;;;;;5052349;28;20128;-73
2023/10/12 01:26:16;;;;;;;11.50;2.30;;;13.50;99.90;;;;;;5052353;28;20561;-73
2023/10/12 01:28:45;;;;;;;8.23;2.78;;;13.60;99.90;;;;;;5051998;28;20036;-73
2023/10/12 01:31:11;;;;;;;13.95;2.00;;;13.60;99.90;;;;;;5052085;28;20051;-73
2023/10/12 01:33:41;;;;;;;9.50;1.90;;;13.60;99.90;;;;;;5052360;28;20037;-73
2023/10/12 01:36:07;;;;;;;9.88;1.77;;;13.60;99.90;;;;;;5051726;28;20527;-73
2023/10/12 01:38:37;;;;;;;8.68;1.77;;;13.60;99.90;;;;;;5051661;28;20045;-73
2023/10/12 01:41:09;;;;;;;8.13;2.00;;;13.60;99.90;;;;;;5051800;28;20037;-73
2023/10/12 01:43:35;;;;;;;10.00;1.80;;;13.60;99.90;;;;;;5051961;28;20045;-73
2023/10/12 01:46:08;;;;;;;7.15;1.67;;;13.50;99.90;;;;;;5051836;28;20060;-72
2023/10/12 01:48:34;;;;;;;8.32;2.00;;;13.50;99.90;;;;;;5051744;28;20055;-73
2023/10/12 01:51:14;;;;;;;6.95;1.73;;;13.60;99.90;;;;;;5051786;28;20033;-73
2023/10/12 01:53:40;;;;;;;7.95;1.70;;;13.50;99.90;;;;;;5051722;28;20056;-73
2023/10/12 01:56:09;;;;;;;8.38;1.80;;;13.50;99.90;;;;;;5051526;28;20045;-73
2023/10/12 01:58:35;;;;;;;12.52;2.10;;;13.50;99.90;;;;;;5050780;28;20106;-72
2023/10/12 02:01:05;;;;;;;10.85;1.95;;;13.50;99.90;;;;;;5051608;28;20037;-73
2023/10/12 02:03:31;;;;;;;12.82;2.03;;;13.50;99.90;;;;;;5051824;28;20049;-73
2023/10/12 02:06:13;;;;;;;8.85;2.08;;;13.50;99.90;;;;;;5051299;28;20037;-73
2023/10/12 02:08:45;;;;;;;14.30;1.90;;;13.50;99.90;;;;;;5050452;28;20029;-72
2023/10/12 02:13:47;;;;;;;10.60;1.60;;;13.40;99.90;;;;;;5051600;28;20053;-74
2023/10/12 02:16:23;;;;;;;16.40;2.20;;;13.40;99.90;;;;;;5051228;28;20056;-73
2023/10/12 02:18:48;;;;;;;10.60;1.98;;;13.30;99.90;;;;;;5050989;28;20041;-74
2023/10/12 02:21:20;;;;;;;10.88;1.90;;;13.30;99.90;;;;;;5035014;28;20382;-73
2023/10/12 02:26:38;;;;;;;9.93;2.05;;;13.30;99.90;;;;;;5050548;28;20045;-73
2023/10/12 02:31:40;;;;;;;11.48;2.05;;;13.10;99.90;;;;;;5052427;28;20049;-73
2023/10/12 02:34:07;;;;;;;8.48;1.55;;;13.10;99.90;;;;;;5051120;28;20070;-73
2023/10/12 02:36:33;;;;;;;13.68;1.77;;;13.10;99.90;;;;;;5051026;28;20128;-73
2023/10/12 02:39:10;;;;;;;9.27;1.70;;;13.10;99.90;;;;;;5050436;28;20179;-73
2023/10/12 02:41:36;;;;;;;11.75;2.40;;;13.10;99.90;;;;;;5051290;28;20052;-74
2023/10/12 02:44:21;;;;;;;17.83;2.13;;;13.10;99.90;;;;;;5050408;28;20049;-74
2023/10/12 02:47:12;;;;;;;10.90;1.70;;;13.10;99.90;;;;;;5050088;28;20041;-74
2023/10/12 02:49:39;;;;;;;9.25;1.83;;;13.10;99.90;;;;;;5049568;28;20048;-74
2023/10/12 02:52:08;;;;;;;13.48;1.55;;;13.00;99.90;;;;;;5050786;28;20455;-74
2023/10/12 02:54:41;;;;;;;8.40;2.33;;;13.00;99.90;;;;;;5049918;28;20048;-74
2023/10/12 02:57:07;;;;;;;;;;;13.00;99.90;;;;;;5050990;28;20044;-73
2023/10/12 02:59:38;;;;;;;9.43;1.63;;;13.00;99.90;;;;;;5033660;28;20410;-73
2023/10/12 03:02:19;;;;;;;11.02;1.80;;;12.90;99.90;;;;;;5050693;28;20476;-74
2023/10/12 03:04:45;;;;;;;8.25;1.70;;;12.90;99.90;;;;;;5050435;28;20037;-74
2023/10/12 03:07:13;;;;;;;6.60;2.05;;;12.90;99.90;;;;;;5050276;28;20045;-73
2023/10/12 03:09:44;;;;;;;9.32;1.98;;;12.90;99.90;;;;;;5050316;28;20457;-74
2023/10/12 03:12:10;;;;;;;10.48;2.08;;;12.90;99.90;;;;;;5050562;28;20439;-73
2023/10/12 03:14:36;;;;;;;12.05;2.40;;;12.90;99.90;;;;;;5051592;28;20063;-73
2023/10/12 03:17:03;;;;;;;12.43;2.88;;;12.90;99.90;;;;;;5050067;28;20044;-73
2023/10/12 03:19:35;;;;;;;11.82;2.35;;;12.90;99.90;;;;;;5050173;28;20049;-73
2023/10/12 03:22:03;;;;;;;19.77;2.85;;;12.80;99.90;;;;;;5051495;28;20526;-73
2023/10/12 03:24:44;;;;;;;15.20;2.55;;;12.80;99.90;;;;;;5050065;28;20087;-73
2023/10/12 03:27:11;;;;;;;10.82;2.45;;;12.80;99.90;;;;;;5050365;28;20037;-74
2023/10/12 03:29:43;;;;;;;10.75;1.88;;;12.80;99.90;;;;;;5049860;28;20045;-72
2023/10/12 03:32:11;;;;;;;13.75;2.65;;;12.80;99.90;;;;;;5050122;28;20033;-72
2023/10/12 03:37:18;;;;;;;11.77;2.35;;;12.70;99.90;;;;;;5049830;28;20048;-73
2023/10/12 03:39:59;;;;;;;15.10;2.63;;;12.70;99.90;;;;;;5049526;28;20056;-73
2023/10/12 03:47:47;;;;;;;7.72;2.70;;;12.70;99.90;;;;;;5029016;28;20500;-73
2023/10/12 03:50:17;;;;;;;7.20;2.55;;;12.70;99.90;;;;;;5049389;28;20056;-73
2023/10/12 03:52:52;;;;;;;9.65;2.60;;;12.60;99.90;;;;;;5033114;28;20029;-73
2023/10/12 03:55:27;;;;;;;9.93;2.88;;;12.70;99.90;;;;;;5049785;28;20094;-73
2023/10/12 03:58:00;;;;;;;14.35;3.03;;;12.60;99.90;;;;;;5050143;28;20040;-72
2023/10/12 04:00:35;;;;;;;13.85;3.22;;;12.60;99.90;;;;;;5054850;28;20047;-74
2023/10/12 04:03:05;;;;;;;14.85;3.45;;;12.60;99.90;;;;;;5037297;28;20400;-73
2023/10/12 04:13:54;;;;;;;8.32;3.38;;;12.60;99.90;;;;;;5053626;28;20041;-73
2023/10/12 04:18:41;;;;;;;9.23;2.85;;;12.50;99.90;;;;;;5053767;28;20057;-73
2023/10/12 04:21:07;;;;;;;13.80;3.90;;;12.50;99.90;;;;;;5053697;28;20041;-73
2023/10/12 04:26:27;;;;;;;12.35;3.83;;;12.50;99.90;;;;;;5053767;28;20044;-74
2023/10/12 04:28:58;;;;;;;11.00;3.22;;;12.50;99.90;;;;;;5053506;28;20083;-74
2023/10/12 04:34:08;;;;;;;10.23;2.88;;;12.40;99.90;;;;;;5052591;28;20049;-73
2023/10/12 04:36:45;;;;;;;9.70;3.05;;;12.50;99.90;;;;;;5052107;28;20041;-72
2023/10/12 04:46:59;;;;;;;9.80;3.13;;;12.40;99.90;;;;;;5052882;28;20076;-73
2023/10/12 04:57:32;;;;;;;9.20;2.97;;;12.30;99.90;;;;;;5052685;28;20041;-74
2023/10/12 05:03:22;;;;;;;8.55;3.33;;;12.30;99.90;;;;;;5014782;28;20515;-74
2023/10/12 05:05:55;;;;;;;12.70;2.80;;;12.40;99.90;;;;;;5014285;28;20204;-73
2023/10/12 05:08:20;;;;;;;7.50;2.80;;;12.30;99.90;;;;;;5036736;28;20067;-73
2023/10/12 05:10:46;;;;;;;12.85;2.65;;;12.30;99.90;;;;;;5051725;28;20113;-72
2023/10/12 05:13:18;;;;;;;9.90;2.55;;;12.30;99.90;;;;;;5052730;28;20047;-74
2023/10/12 05:15:46;;;;;;;12.55;2.88;;;12.30;99.90;;;;;;5052396;28;20590;-74
2023/10/12 05:18:13;;;;;;;9.00;2.50;;;12.30;99.90;;;;;;5052312;28;20041;-73
2023/10/12 05:20:42;;;;;;;11.18;2.42;;;12.30;99.90;;;;;;5052456;28;20044;-72
2023/10/12 05:23:08;;;;;;;11.70;2.30;;;12.30;99.90;;;;;;5052495;28;20043;-73
2023/10/12 05:25:48;;;;;;;9.65;2.35;;;12.30;99.90;;;;;;5053688;28;20112;-73
2023/10/12 05:28:18;;;;;;;10.50;2.20;;;12.20;99.90;;;;;;5052481;28;20044;-73
2023/10/12 05:30:48;;;;;;;10.45;2.28;;;12.20;99.90;;;;;;5050648;28;20033;-74
2023/10/12 05:35:59;;;;;;;10.40;2.20;;;12.10;99.90;;;;;;5052199;28;20041;-73
2023/10/12 05:38:37;;;;;;;7.35;2.40;;;12.00;99.90;;;;;;5051857;28;20033;-73
2023/10/12 05:41:04;;;;;;;11.60;2.17;;;12.00;99.90;;;;;;5051959;28;20370;-74
2023/10/12 05:43:33;;;;;;;10.13;2.00;;;11.90;99.90;;;;;;5051777;28;20045;-73
2023/10/12 05:46:04;;;;;;;11.38;2.38;;;11.90;99.90;;;;;;5052014;28;20033;-74
2023/10/12 05:48:33;;;;;;;11.52;2.80;;;11.90;99.90;;;;;;5051560;28;20037;-73
2023/10/12 05:50:58;;;;;;;11.10;2.30;;;11.80;99.90;;;;;;5035243;28;20036;-74
2023/10/12 05:53:26;;;;;;;10.40;2.03;;;11.80;99.90;;;;;;5053285;28;20040;-74
2023/10/12 05:55:52;;;;;;;11.65;2.10;;;11.70;99.90;;;;;;5053376;28;20461;-74
2023/10/12 05:58:18;;;;;;;10.75;2.13;;;11.60;99.90;;;;;;5050567;28;20396;-73
2023/10/12 06:00:47;;;;;;;10.25;2.17;;;11.60;99.90;;;;;;5051142;28;20044;-73
2023/10/12 06:03:15;;;;;;;7.00;1.80;;;11.60;99.90;;;;;;5051417;28;20055;-74
2023/10/12 06:05:45;;;;;;;10.40;2.15;;;11.60;99.90;;;;;;5051395;28;20340;-74
2023/10/12 06:08:12;;;;;;;7.43;2.28;;;11.50;99.90;;;;;;5050471;28;20512;-74
2023/10/12 06:10:41;;;;;;;9.32;2.38;;;11.50;99.90;;;;;;5051082;28;20041;-73
2023/10/12 06:13:15;;;;;;;13.20;2.00;;;11.50;99.90;;;;;;5051750;28;20033;-73
2023/10/12 06:15:42;;;;;;;13.73;2.25;;;11.50;99.90;;;;;;5051332;28;20522;-73
2023/10/12 06:18:21;;;;;;;8.55;2.40;;;11.50;99.90;;;;;;5051236;28;20048;-73
2023/10/12 06:20:58;;;;;;;10.73;2.35;;;11.50;99.90;;;;;;5051416;28;20029;-73
2023/10/12 06:23:24;;;;;;;6.55;2.20;;;11.50;99.90;;;;;;5051099;28;20128;-72
2023/10/12 06:25:50;;;;;;;7.78;2.17;;;11.50;99.90;;;;;;5051011;28;20033;-73
2023/10/12 06:28:18;;;;;;;12.32;2.25;;;11.50;99.90;;;;;;5051084;28;20037;-73
2023/10/12 06:30:45;;;;;;;10.73;1.80;;;11.50;99.90;;;;;;5050825;28;20094;-72
2023/10/12 06:33:14;;;;;;;9.93;1.90;;;11.50;99.90;;;;;;5051025;28;20093;-73
2023/10/12 06:35:58;;;;;;;6.22;2.03;;;11.50;99.90;;;;;;5051111;28;20075;-74
2023/10/12 06:38:38;;;;;;;7.28;2.13;;;11.50;99.90;;;;;;5050993;28;20037;-72
2023/10/12 06:46:19;;;;;;;11.73;3.17;;;11.40;99.90;;;;;;5051042;28;20455;-73
2023/10/12 06:48:45;;;;;;;12.07;2.97;;;11.50;99.90;;;;;;5050694;28;20071;-73
2023/10/12 06:51:13;;;;;;;10.82;2.33;;;11.50;99.90;;;;;;5050990;28;20051;-73
2023/10/12 06:53:41;;;;;;;10.10;2.38;;;11.50;99.90;;;;;;5049727;28;20052;-73
2023/10/12 06:59:13;;;;;;;12.48;2.60;;;11.60;99.90;;;;;;5050543;28;20496;-73
2023/10/12 07:01:51;;;;;;;10.48;2.05;;;11.70;99.90;;;;;;5050419;28;20044;-73
2023/10/12 07:04:27;;;;;;;8.27;2.25;;;11.70;99.90;;;;;;5050499;28;20417;-73
2023/10/12 07:06:56;;;;;;;8.15;2.42;;;11.70;99.90;;;;;;5050508;28;20044;-73
2023/10/12 07:09:46;;;;;;;8.75;2.33;;;11.80;99.90;;;;;;5049915;28;20036;-73
2023/10/12 07:12:19;;;;;;;7.45;2.30;;;11.90;99.90;;;;;;5050318;28;20037;-73
2023/10/12 07:14:53;;;;;;;8.68;2.22;;;11.90;99.90;;;;;;5050299;28;20036;-73
2023/10/12 07:17:19;;;;;;;11.88;1.90;;;12.00;99.90;;;;;;5050337;28;20106;-73
2023/10/12 07:19:54;;;;;;;11.77;2.13;;;12.00;99.90;;;;;;5049637;28;20044;-73
2023/10/12 07:22:19;;;;;;;13.13;2.08;;;12.20;99.90;;;;;;5049107;28;20052;-73
2023/10/12 07:24:46;;;;;;;12.00;2.00;;;12.20;99.90;;;;;;5051349;28;20124;-73
2023/10/12 07:27:13;;;;;;;8.85;2.22;;;12.30;99.90;;;;;;5050424;28;20037;-74
2023/10/12 07:29:47;;;;;;;10.45;2.13;;;12.40;99.90;;;;;;5050172;28;20447;-73
2023/10/12 07:35:05;;;;;;;12.57;1.90;;;12.60;99.90;;;;;;5049988;28;20045;-73
2023/10/12 07:37:31;;;;;;;6.93;2.30;;;12.80;99.90;;;;;;5049924;28;20051;-73
2023/10/12 07:40:01;;;;;;;7.95;1.70;;;12.90;99.90;;;;;;5049712;28;20120;-73
2023/10/12 07:42:27;;;;;;;9.27;1.90;;;13.00;99.90;;;;;;5050029;28;20045;-73
2023/10/12 07:44:56;;;;;;;8.20;2.15;;;13.10;99.90;;;;;;5049673;28;20048;-74
2023/10/12 07:47:31;;;;;;;7.55;1.80;;;13.20;99.90;;;;;;5049630;28;20037;-73
2023/10/12 07:50:06;;;;;;;12.38;2.03;;;13.40;99.90;;;;;;5049513;28;20052;-73
2023/10/12 07:52:38;;;;;;;7.75;1.73;;;13.60;99.90;;;;;;5049327;28;20041;-74
2023/10/12 07:55:17;;;;;;;8.52;1.60;;;13.60;99.90;;;;;;5049831;28;20055;-73
2023/10/12 07:57:43;;;;;;;8.90;1.52;;;13.60;99.90;;;;;;5049744;28;20033;-73
2023/10/12 08:05:43;;;;;;;5.47;1.35;;;13.60;99.90;;;;;;5049499;28;20050;-73
2023/10/12 08:13:15;;;;;;;10.88;1.83;;;13.60;99.90;;;;;;5049606;28;20449;-73
2023/10/12 08:16:25;;;;;;;9.20;1.95;;;13.60;99.90;;;;;;5049399;28;20378;-73
2023/10/12 08:19:23;;;;;;;8.95;2.13;;;13.50;99.90;;;;;;5046643;28;20051;-73
2023/10/12 08:21:44;;;;;;;8.88;1.73;;;13.60;99.90;;;;;;5049542;28;20048;-73
2023/10/12 08:24:09;;;;;;;8.00;1.90;;;13.60;99.90;;;;;;5049392;28;20562;-73
2023/10/12 08:37:26;;;;;;;10.23;2.08;;;13.70;99.90;;;;;;5049293;28;20080;-73
2023/10/12 08:45:09;;;;;;;9.93;1.98;;;13.90;99.90;;;;;;5049898;28;20049;-73
2023/10/12 08:50:08;;;;;;;12.02;2.05;;;14.00;99.90;;;;;;5053014;28;20386;-74
2023/10/12 08:52:36;;;;;;;5.50;1.48;;;14.00;99.90;;;;;;5036398;28;20029;-74
2023/10/12 08:55:04;;;;;;;9.80;2.10;;;14.10;99.90;;;;;;5052994;28;20048;-73
2023/10/12 08:57:44;;;;;;;6.00;1.10;;;14.00;99.90;;;;;;5052791;28;20029;-73
2023/10/12 09:00:23;;;;;;;11.98;1.52;;;14.10;99.90;;;;;;5052712;28;20049;-74
2023/10/12 09:03:00;;;;;;;7.28;1.83;;;14.10;99.90;;;;;;5052756;28;20040;-73
2023/10/12 09:05:30;;;;;;;6.10;1.58;;;14.10;99.90;;;;;;5052583;28;20072;-74
2023/10/12 09:13:30;;;;;;;7.20;1.33;;;14.20;99.90;;;;;;5052695;28;20049;-74
2023/10/12 09:16:10;;;;;;;14.57;1.85;;;14.30;99.90;;;;;;5034426;28;20037;-74
2023/10/12 09:18:47;;;;;;;10.10;1.77;;;14.30;99.90;;;;;;5050976;28;20053;-74
2023/10/12 09:23:50;;;;;;;7.40;1.60;;;14.40;99.90;;;;;;5052332;28;20045;-74
2023/10/12 09:26:21;;;;;;;12.50;1.88;;;14.40;99.90;;;;;;5035777;28;20041;-73
2023/10/12 09:31:15;;;;;;;10.80;1.70;;;14.60;99.90;;;;;;5052282;28;20063;-73
2023/10/12 09:33:53;;;;;;;8.32;1.38;;;14.50;99.90;;;;;;5052248;28;20045;-74
2023/10/12 09:36:19;;;;;;;8.52;1.60;;;14.50;99.90;;;;;;5035653;28;20036;-74
2023/10/12 09:38:45;;;;;;;7.90;1.20;;;14.50;99.90;;;;;;5051879;28;20044;-73
2023/10/12 09:41:16;;;;;;;7.40;1.40;;;14.50;99.90;;;;;;5052158;28;20049;-73
2023/10/12 09:43:44;;;;;;;8.38;1.50;;;14.50;99.90;;;;;;5051779;28;20055;-73
2023/10/12 09:46:13;;;;;;;8.00;1.58;;;14.60;99.90;;;;;;5051954;28;20112;-73
2023/10/12 09:48:41;;;;;;;7.70;1.30;;;14.60;99.90;;;;;;5051357;28;20033;-74
2023/10/12 09:51:15;;;;;;;3.88;1.20;;;14.70;99.90;;;;;;5051848;28;20048;-74
2023/10/12 09:53:59;;;;;;;7.15;1.30;;;14.80;99.90;;;;;;5051874;28;20072;-73
2023/10/12 09:56:28;;;;;;;10.15;1.63;;;14.90;99.90;;;;;;5051015;28;20428;-73
2023/10/12 09:59:07;;;;;;;9.32;1.42;;;14.90;99.90;;;;;;5051588;28;20465;-73
2023/10/12 10:07:17;;;;;;;8.48;1.25;;;15.20;99.90;;;;;;5042728;28;20412;-74
2023/10/12 10:09:48;;;;;;;10.68;1.67;;;15.30;99.90;;;;;;5050552;28;20495;-73
2023/10/12 10:12:16;;;;;;;10.95;1.58;;;15.50;99.90;;;;;;5050988;28;20033;-73
2023/10/12 10:14:45;;;;;;;5.65;1.50;;;15.50;99.90;;;;;;5034890;28;20040;-73
2023/10/12 10:17:20;;;;;;;11.02;1.80;;;15.60;99.90;;;;;;5051699;28;20401;-73
2023/10/12 10:19:51;;;;;;;9.88;1.45;;;15.60;99.90;;;;;;5051285;28;20044;-72
2023/10/12 10:22:21;;;;;;;8.20;1.77;;;15.60;99.90;;;;;;5051422;28;20055;-72
2023/10/12 10:24:50;;;;;;;7.43;1.20;;;15.70;99.90;;;;;;5051178;28;20428;-73
2023/10/12 10:27:17;;;;;;;9.55;1.73;;;15.70;99.90;;;;;;5050024;28;20404;-73
2023/10/12 10:29:56;;;;;;;5.45;1.25;;;15.70;99.90;;;;;;5050968;28;20037;-73
2023/10/12 10:32:29;;;;;;;8.95;1.67;;;15.80;99.90;;;;;;5051164;28;20043;-72
2023/10/12 10:35:12;;;;;;;8.38;1.63;;;15.80;99.90;;;;;;5051320;28;20041;-73
2023/10/12 10:40:47;;;;;;;11.30;1.75;;;15.80;99.90;;;;;;5042219;28;20040;-72
2023/10/12 10:43:16;;;;;;;8.13;1.30;;;15.90;99.90;;;;;;5050941;28;20504;-73
2023/10/12 10:45:53;;;;;;;11.30;1.73;;;16.00;99.90;;;;;;5050992;28;20036;-72
2023/10/12 10:48:19;;;;;;;8.95;1.55;;;16.10;99.90;;;;;;5033970;28;20048;-72
2023/10/12 10:50:50;;;;;;;9.52;1.60;;;16.10;99.90;;;;;;5050557;28;20041;-73
2023/10/12 10:53:17;;;;;;;12.68;1.88;;;16.10;99.90;;;;;;5051136;28;20149;-73
2023/10/12 10:55:42;;;;;;;10.63;1.75;;;16.20;99.90;;;;;;5050629;28;20060;-73
2023/10/12 10:58:09;;;;;;;9.65;1.48;;;16.20;99.90;;;;;;5050693;28;20036;-73
2023/10/12 11:00:37;;;;;;;7.45;1.30;;;16.20;99.90;;;;;;5050179;28;20109;-73
2023/10/12 11:03:05;;;;;;;8.02;1.27;;;16.20;99.90;;;;;;5050208;28;20045;-73
2023/10/12 11:05:37;;;;;;;13.32;1.70;;;16.30;99.90;;;;;;5051427;28;20044;-73
2023/10/12 11:08:19;;;;;;;9.23;1.50;;;16.30;99.90;;;;;;5049409;28;20048;-73
2023/10/12 11:13:33;;;;;;;7.63;1.42;;;16.50;99.90;;;;;;5050647;28;20500;-73
2023/10/12 11:16:20;;;;;;;5.90;1.42;;;16.50;99.90;;;;;;5050112;28;20044;-73
2023/10/12 11:18:47;;;;;;;7.82;1.05;;;16.40;99.90;;;;;;5049818;28;20044;-73
2023/10/12 11:21:14;;;;;;;8.70;1.35;;;16.50;99.90;;;;;;5050482;28;20128;-73
2023/10/12 11:23:44;;;;;;;8.60;1.80;;;16.60;99.90;;;;;;5050059;28;20041;-73
2023/10/12 11:26:17;;;;;;;7.88;1.23;;;16.70;99.90;;;;;;5050195;28;20045;-73
2023/10/12 11:28:46;;;;;;;7.78;1.30;;;16.90;99.90;;;;;;5049775;28;20045;-73
2023/10/12 11:31:30;;;;;;;8.02;1.38;;;16.90;99.90;;;;;;5030187;28;20053;-73
2023/10/12 11:33:57;;;;;;;10.30;2.03;;;17.00;99.90;;;;;;5042387;28;20057;-73
2023/10/12 11:36:24;;;;;;;10.63;1.42;;;17.10;99.90;;;;;;5050315;28;20044;-73
2023/10/12 11:39:04;;;;;;;5.85;1.55;;;17.20;99.90;;;;;;5049677;28;20409;-73
2023/10/12 11:41:30;;;;;;;5.25;1.30;;;17.30;99.90;;;;;;5049909;28;20086;-73
2023/10/12 11:44:05;;;;;;;8.05;1.63;;;17.30;99.90;;;;;;5049715;28;20119;-74
2023/10/12 11:46:43;;;;;;;9.80;1.40;;;17.20;99.90;;;;;;5049746;28;20047;-73
2023/10/12 11:49:10;;;;;;;7.88;1.50;;;17.20;99.90;;;;;;5049318;28;20064;-73
2023/10/12 11:51:40;;;;;;;11.80;1.65;;;17.10;99.90;;;;;;5049650;28;20509;-73
2023/10/12 11:54:07;;;;;;;10.60;1.20;;;17.10;99.90;;;;;;5049760;28;20044;-73
2023/10/12 11:56:43;;;;;;;7.97;1.60;;;17.10;99.90;;;;;;5049700;28;20128;-73
2023/10/12 11:59:13;;;;;;;5.63;1.17;;;17.10;99.90;;;;;;5049666;28;20037;-73
2023/10/12 12:01:40;;;;;;;8.80;1.42;;;17.10;99.90;;;;;;5049685;28;20051;-73
2023/10/12 12:04:10;;;;;;;7.20;1.38;;;17.00;99.90;;;;;;5049495;28;20107;-74
2023/10/12 12:06:36;;;;;;;7.40;1.67;;;16.90;99.90;;;;;;5033384;28;20424;-73
2023/10/12 12:09:07;;;;;;;6.50;1.10;;;16.80;99.90;;;;;;5049454;28;20037;-73
2023/10/12 12:11:37;;;;;;;6.47;1.50;;;16.70;99.90;;;;;;5050633;28;20464;-73
2023/10/12 12:14:06;;;;;;;8.57;1.38;;;16.70;99.90;;;;;;5049583;28;20072;-73
2023/10/12 12:16:34;;;;;;;8.60;1.27;;;16.60;99.90;;;;;;5050844;28;20041;-74
2023/10/12 12:19:00;;;;;;;11.82;2.00;;;16.60;99.90;;;;;;5049955;28;20053;-73
2023/10/12 12:21:34;;;;;;;9.85;1.38;;;16.50;99.90;;;;;;5054970;28;20029;-73
2023/10/12 12:26:45;;;;;;;9.30;1.88;;;16.50;99.90;;;;;;5053259;28;20037;-74
2023/10/12 12:29:11;;;;;;;7.70;1.40;;;16.50;99.90;;;;;;5053321;28;20033;-73
2023/10/12 12:31:38;;;;;;;11.52;1.90;;;16.50;99.90;;;;;;5054798;28;20033;-74
2023/10/12 12:34:06;;;;;;;8.63;1.30;;;16.40;99.90;;;;;;5053521;28;20048;-73
2023/10/12 12:36:33;;;;;;;7.50;1.38;;;16.40;99.90;;;;;;5053494;28;20032;-73
2023/10/12 12:39:00;;;;;;;7.35;1.55;;;16.50;99.90;;;;;;5052834;28;20049;-73
2023/10/12 12:41:26;;;;;;;8.27;1.40;;;16.50;99.90;;;;;;5053226;28;20065;-74
2023/10/12 12:43:53;;;;;;;7.60;1.48;;;16.40;99.90;;;;;;5053045;28;20108;-73
2023/10/12 12:46:19;;;;;;;7.80;1.50;;;16.50;99.90;;;;;;5053012;28;20029;-73
2023/10/12 12:48:54;;;;;;;8.38;1.65;;;16.40;99.90;;;;;;5054015;28;20037;-73
2023/10/12 12:51:20;;;;;;;6.40;1.38;;;16.40;99.90;;;;;;5054270;28;20102;-73
2023/10/12 12:53:47;;;;;;;5.55;1.10;;;16.40;99.90;;;;;;5052925;28;20047;-73
2023/10/12 12:56:18;;;;;;;9.27;1.73;;;16.30;99.90;;;;;;5036135;28;20044;-73
2023/10/12 12:58:49;;;;;;;8.75;1.60;;;16.30;99.90;;;;;;5052743;28;20048;-73
2023/10/12 13:01:16;;;;;;;8.25;1.50;;;16.30;99.90;;;;;;5052669;28;20044;-74
2023/10/12 13:03:42;;;;;;;11.20;1.77;;;16.30;99.90;;;;;;5052985;28;20045;-74
2023/10/12 13:06:08;;;;;;;8.40;1.20;;;16.40;99.90;;;;;;5052473;28;20385;-73
2023/10/12 13:08:35;;;;;;;6.25;1.50;;;16.40;99.90;;;;;;5050456;28;20083;-73
2023/10/12 13:11:01;;;;;;;9.63;1.98;;;16.40;99.90;;;;;;5052096;28;20041;-72
2023/10/12 13:13:27;;;;;;;9.55;1.50;;;16.40;99.90;;;;;;5035963;28;20416;-73
2023/10/12 13:15:52;;;;;;;12.07;1.55;;;16.30;99.90;;;;;;5052736;28;20084;-73
2023/10/12 13:18:19;;;;;;;8.20;1.80;;;16.20;99.90;;;;;;5052294;28;20075;-74
2023/10/12 13:20:49;;;;;;;12.48;1.85;;;16.10;99.90;;;;;;5052660;28;20451;-74
2023/10/12 13:23:17;;;;;;;9.02;1.70;;;16.10;99.90;;;;;;5052659;28;20037;-72
2023/10/12 13:25:43;;;;;;;12.57;1.85;;;16.10;99.90;;;;;;5052464;28;20119;-74
2023/10/12 13:28:10;;;;;;;6.95;1.60;;;16.10;99.90;;;;;;5052252;28;20091;-73
2023/10/12 13:30:42;;;;;;;8.55;1.80;;;16.10;99.90;;;;;;5051126;28;20041;-73
2023/10/12 13:33:11;;;;;;;6.05;1.42;;;16.10;99.90;;;;;;5052443;28;20539;-73
2023/10/12 13:35:41;;;;;;;7.38;1.40;;;16.10;99.90;;;;;;5052105;28;20087;-73
2023/10/12 13:38:12;;;;;;;10.50;1.83;;;16.10;99.90;;;;;;5035382;28;20116;-73
2023/10/12 13:40:46;;;;;;;8.57;1.50;;;16.00;99.90;;;;;;5052181;28;20053;-73
2023/10/12 13:43:15;;;;;;;7.97;1.73;;;16.10;99.90;;;;;;5051906;28;20048;-74
2023/10/12 13:45:51;;;;;;;9.63;1.98;;;16.10;99.90;;;;;;5052085;28;20037;-74
2023/10/12 13:48:21;;;;;;;11.18;1.35;;;16.10;99.90;;;;;;5051699;28;20119;-74
2023/10/12 13:50:59;;;;;;;11.25;1.40;;;16.00;99.90;;;;;;5051817;28;20036;-73
2023/10/12 13:53:28;;;;;;;8.18;1.52;;;15.90;99.90;;;;;;5051884;28;20045;-73
2023/10/12 13:55:53;;;;;;;6.13;1.40;;;15.90;99.90;;;;;;5050114;28;20036;-73
2023/10/12 13:58:24;;;;;;;11.85;1.63;;;15.80;99.90;;;;;;5051563;28;20418;-73
2023/10/12 14:00:54;;;;;;;12.75;1.70;;;15.70;99.90;;;;;;5051501;28;20033;-74
2023/10/12 14:03:28;;;;;;;10.50;1.75;;;15.70;99.90;;;;;;5051700;28;20041;-74
2023/10/12 14:05:55;;;;;;;10.52;1.77;;;15.70;99.90;;;;;;5035003;28;20045;-74
2023/10/12 14:08:20;;;;;;;6.82;1.40;;;15.70;99.90;;;;;;5051321;28;20121;-73
2023/10/12 14:10:45;;;;;;;7.97;1.17;;;15.70;99.90;;;;;;5051278;28;20075;-72
2023/10/12 14:13:13;;;;;;;6.93;1.33;;;15.70;99.90;;;;;;5051407;28;20633;-74
2023/10/12 14:15:43;;;;;;;7.30;1.27;;;15.70;99.90;;;;;;5051337;28;20037;-73
2023/10/12 14:18:16;;;;;;;14.20;1.70;;;15.60;99.90;;;;;;5051371;28;20504;-73
2023/10/12 14:20:42;;;;;;;8.07;1.20;;;15.60;99.90;;;;;;5051084;28;20041;-74
2023/10/12 14:23:08;;;;;;;13.05;1.98;;;15.50;99.90;;;;;;5051290;28;20045;-72
2023/10/12 14:25:47;;;;;;;11.25;1.85;;;15.50;99.90;;;;;;5051167;28;20043;-74
2023/10/12 14:28:17;;;;;;;11.75;1.70;;;15.40;99.90;;;;;;5049622;28;20082;-74
2023/10/12 14:30:46;;;;;;;5.72;1.50;;;15.40;99.90;;;;;;5049633;28;20169;-74
2023/10/12 14:33:15;;;;;;;11.30;1.50;;;15.30;99.90;;;;;;5049525;28;20045;-72
2023/10/12 14:35:42;;;;;;;10.80;1.50;;;15.30;99.90;;;;;;5049185;28;20060;-74
2023/10/12 14:38:13;;;;;;;8.30;1.50;;;15.20;99.90;;;;;;5050011;28;20095;-74
2023/10/12 14:40:40;;;;;;;7.15;1.42;;;15.20;99.90;;;;;;5051073;28;20041;-75
2023/10/12 14:43:10;;;;;;;6.57;1.40;;;15.20;99.90;;;;;;5049836;28;20202;-75
2023/10/12 14:45:58;;;;;;;7.57;1.60;;;15.20;99.90;;;;;;5050768;28;20047;-75
2023/10/12 14:48:25;;;;;;;6.43;1.60;;;15.10;99.90;;;;;;5034265;28;20041;-75
2023/10/12 14:51:09;;;;;;;6.15;1.50;;;15.10;99.90;;;;;;5050490;28;20044;-75
2023/10/12 14:53:35;;;;;;;9.30;1.48;;;15.10;99.90;;;;;;5050945;28;20068;-75
2023/10/12 14:56:03;;;;;;;10.07;1.40;;;15.10;99.90;;;;;;5050640;28;20128;-74
2023/10/12 14:58:30;;;;;;;10.55;1.70;;;15.00;99.90;;;;;;5050383;28;20033;-74
2023/10/12 15:00:56;;;;;;;7.78;1.75;;;14.90;99.90;;;;;;5050363;28;20043;-75
2023/10/12 15:03:21;;;;;;;6.65;1.15;;;14.80;99.90;;;;;;5050542;28;20041;-74
2023/10/12 15:05:55;;;;;;;8.82;1.40;;;14.80;99.90;;;;;;5050419;28;20029;-74
2023/10/12 15:08:22;;;;;;;8.63;1.70;;;14.70;99.90;;;;;;5050418;28;20106;-75